Time;durP1;ratioP1;P1;durP2;ratioP2;P2;SDS_P1;SDS_P2;PMS_P1;PMS_P2;Temp;Humidity;BMP_temperature;BMP_pressure;BME280_temperature;BME280_humidity;BME280_pressure;Samples;Min_cycle;Max_cycle;Signal;HPM_P1;HPM_P2
2021/04/01 00:01:33;;;;;;;24.50;15.20;;;15.60;53.40;;;;;;5011520;28;20464;-73
2021/04/01 00:03:59;;;;;;;23.98;15.02;;;15.60;53.40;;;;;;5012798;28;20026;-73
2021/04/01 00:06:24;;;;;;;27.17;16.42;;;15.60;53.60;;;;;;4998659;28;20113;-73
2021/04/01 00:08:50;;;;;;;25.80;16.23;;;15.50;53.90;;;;;;5008823;28;20042;-73
2021/04/01 00:11:16;;;;;;;22.63;12.65;;;15.50;54.10;;;;;;4999489;28;20426;-73
2021/04/01 00:13:41;;;;;;;23.63;13.77;;;15.50;53.70;;;;;;5011074;28;20038;-73
2021/04/01 00:16:07;;;;;;;22.35;12.38;;;15.50;53.50;;;;;;5025173;28;20022;-73
2021/04/01 00:18:33;;;;;;;19.88;13.15;;;15.50;53.10;;;;;;5011116;28;20030;-73
2021/04/01 00:20:58;;;;;;;19.60;12.38;;;15.50;53.40;;;;;;5024769;28;20084;-73
2021/04/01 00:23:24;;;;;;;20.15;11.85;;;15.50;53.30;;;;;;5022227;28;20033;-73
2021/04/01 00:25:50;;;;;;;25.02;13.13;;;15.50;53.20;;;;;;5025323;28;20179;-73
2021/04/01 00:28:16;;;;;;;27.15;13.00;;;15.50;53.40;;;;;;5011471;28;20455;-72
2021/04/01 00:30:42;;;;;;;20.33;13.00;;;15.50;53.40;;;;;;5025124;28;20506;-73
2021/04/01 00:33:07;;;;;;;17.17;11.23;;;15.50;53.30;;;;;;5011147;28;20065;-74
2021/04/01 00:35:32;;;;;;;19.42;11.75;;;15.50;53.10;;;;;;5024075;28;20034;-74
2021/04/01 00:37:58;;;;;;;19.77;11.45;;;15.50;53.10;;;;;;5014990;28;20038;-74
2021/04/01 00:40:25;;;;;;;21.45;12.35;;;15.50;53.00;;;;;;5011361;28;20029;-74
2021/04/01 00:42:51;;;;;;;18.95;11.45;;;15.50;53.00;;;;;;5015242;28;20030;-78
2021/04/01 00:45:17;;;;;;;20.52;11.18;;;15.50;53.00;;;;;;5022340;28;20022;-73
2021/04/01 00:47:48;;;;;;;18.45;10.02;;;15.50;53.00;;;;;;5017708;28;20036;-73
2021/04/01 00:50:17;;;;;;;17.10;10.45;;;15.50;52.90;;;;;;5027919;28;20033;-73
2021/04/01 00:52:43;;;;;;;20.65;10.93;;;15.50;52.90;;;;;;4998875;28;20061;-72
2021/04/01 00:55:10;;;;;;;18.33;10.65;;;15.50;52.80;;;;;;5030323;28;20025;-73
2021/04/01 00:57:38;;;;;;;19.02;10.30;;;15.50;53.30;;;;;;5014458;28;20026;-73
2021/04/01 01:00:07;;;;;;;16.58;10.10;;;15.50;53.00;;;;;;5023797;28;20053;-73
2021/04/01 01:02:32;;;;;;;17.50;10.30;;;15.50;52.90;;;;;;5014620;28;20492;-73
2021/04/01 01:04:59;;;;;;;15.13;9.68;;;15.50;52.90;;;;;;5015506;28;20121;-73
2021/04/01 01:07:24;;;;;;;19.40;10.45;;;15.50;52.90;;;;;;5014538;28;20048;-73
2021/04/01 01:09:50;;;;;;;16.10;9.30;;;15.50;52.80;;;;;;5012605;28;20373;-73
2021/04/01 01:12:15;;;;;;;16.15;10.07;;;15.50;52.80;;;;;;5014618;28;20127;-73
2021/04/01 01:14:41;;;;;;;12.95;9.00;;;15.40;52.90;;;;;;5032229;28;20101;-73
2021/04/01 01:17:06;;;;;;;17.58;9.88;;;15.40;52.70;;;;;;4996625;28;20030;-73
2021/04/01 01:19:38;;;;;;;16.83;9.43;;;15.40;52.80;;;;;;5013975;28;20470;-73
2021/04/01 01:22:05;;;;;;;15.90;9.00;;;15.40;52.80;;;;;;5013658;28;20038;-74
2021/04/01 01:24:31;;;;;;;19.63;10.45;;;15.40;52.80;;;;;;5014258;28;20029;-73
2021/04/01 01:26:58;;;;;;;15.07;9.15;;;15.30;52.80;;;;;;5012114;28;20038;-73
2021/04/01 01:29:24;;;;;;;14.77;9.15;;;15.30;52.80;;;;;;5029656;28;20036;-73
2021/04/01 01:31:50;;;;;;;15.27;9.55;;;15.30;52.90;;;;;;5018128;28;20050;-73
2021/04/01 01:34:19;;;;;;;15.38;9.65;;;15.30;53.00;;;;;;5024733;28;20025;-73
2021/04/01 01:36:45;;;;;;;18.40;9.52;;;15.30;53.20;;;;;;5034166;28;20033;-73
2021/04/01 01:39:11;;;;;;;18.75;9.93;;;15.30;53.20;;;;;;5037458;28;20458;-73
2021/04/01 01:41:36;;;;;;;16.77;9.10;;;15.20;53.30;;;;;;5031510;28;20096;-73
2021/04/01 01:44:03;;;;;;;16.48;10.07;;;15.10;53.30;;;;;;5017631;28;20021;-73
2021/04/01 01:46:28;;;;;;;16.42;9.73;;;15.20;53.50;;;;;;5022621;28;20041;-73
2021/04/01 01:48:58;;;;;;;17.52;9.25;;;15.10;53.60;;;;;;5018013;28;20036;-73
2021/04/01 01:51:24;;;;;;;16.77;9.32;;;15.10;53.50;;;;;;5029883;28;20021;-74
2021/04/01 01:53:51;;;;;;;15.35;9.93;;;15.10;53.60;;;;;;5036588;28;20021;-73
2021/04/01 01:56:21;;;;;;;14.30;9.43;;;15.10;53.70;;;;;;5015864;28;20026;-72
2021/04/01 01:58:48;;;;;;;15.10;8.82;;;15.10;53.90;;;;;;5013712;28;20379;-72
2021/04/01 02:01:14;;;;;;;15.63;9.02;;;15.00;53.80;;;;;;5007106;28;20029;-72
2021/04/01 02:03:40;;;;;;;17.30;9.40;;;15.00;53.80;;;;;;5019898;28;20030;-72
2021/04/01 02:06:06;;;;;;;16.67;9.38;;;15.00;53.90;;;;;;4996391;28;20026;-72
2021/04/01 02:08:32;;;;;;;16.77;9.65;;;15.00;53.90;;;;;;5003722;28;20050;-72
2021/04/01 02:10:58;;;;;;;15.70;9.43;;;15.00;54.00;;;;;;5022016;28;20018;-73
2021/04/01 02:13:23;;;;;;;20.67;10.63;;;15.00;54.10;;;;;;5022751;28;20075;-72
2021/04/01 02:15:51;;;;;;;15.13;9.57;;;15.00;54.10;;;;;;5012501;28;20026;-77
2021/04/01 02:18:20;;;;;;;16.60;10.88;;;15.00;54.30;;;;;;5018854;28;20026;-78
2021/04/01 02:20:48;;;;;;;18.48;10.25;;;15.00;54.40;;;;;;5016088;28;20021;-78
2021/04/01 02:23:26;;;;;;;19.70;9.95;;;14.90;54.40;;;;;;5021491;28;20045;-77
2021/04/01 02:25:52;;;;;;;15.60;10.07;;;15.00;54.60;;;;;;5024509;28;20033;-77
2021/04/01 02:28:21;;;;;;;16.45;9.88;;;15.00;54.60;;;;;;5028943;28;20053;-77
2021/04/01 02:30:49;;;;;;;16.90;9.73;;;15.00;54.60;;;;;;5018245;28;20026;-77
2021/04/01 02:33:16;;;;;;;15.38;9.50;;;15.00;54.50;;;;;;5016303;28;20026;-77
2021/04/01 02:35:42;;;;;;;20.30;10.15;;;15.00;54.50;;;;;;5021747;28;20048;-78
2021/04/01 02:38:08;;;;;;;19.50;10.63;;;15.00;54.60;;;;;;5002849;28;20029;-78
2021/04/01 02:40:35;;;;;;;15.50;9.52;;;15.00;54.60;;;;;;5019309;28;20018;-79
2021/04/01 02:43:01;;;;;;;17.13;10.77;;;15.10;54.60;;;;;;5022174;28;20026;-78
2021/04/01 02:45:26;;;;;;;16.35;10.07;;;15.10;54.60;;;;;;5018125;28;20021;-79
2021/04/01 02:47:52;;;;;;;17.77;10.00;;;15.10;54.70;;;;;;5021569;28;20548;-77
2021/04/01 02:50:19;;;;;;;19.63;9.10;;;15.10;54.60;;;;;;5011492;28;20030;-74
2021/04/01 02:52:44;;;;;;;18.05;10.73;;;15.10;54.70;;;;;;5019660;28;20067;-76
2021/04/01 02:55:11;;;;;;;18.27;11.55;;;15.10;54.70;;;;;;5013420;28;20111;-72
2021/04/01 02:57:37;;;;;;;16.63;9.65;;;15.00;54.70;;;;;;5012169;28;20498;-72
2021/04/01 03:00:07;;;;;;;20.08;9.68;;;15.00;54.60;;;;;;5013390;28;20065;-71
2021/04/01 03:02:33;;;;;;;17.77;10.63;;;15.00;54.40;;;;;;5021170;28;20037;-70
2021/04/01 03:05:04;;;;;;;13.05;9.32;;;15.00;54.50;;;;;;5008211;28;20026;-70
2021/04/01 03:07:30;;;;;;;17.85;9.85;;;15.00;54.60;;;;;;5032308;28;20033;-70
2021/04/01 03:09:55;;;;;;;20.52;10.93;;;15.00;54.60;;;;;;5025866;28;20085;-71
2021/04/01 03:12:21;;;;;;;17.75;9.95;;;15.10;54.50;;;;;;5012174;28;20355;-70
2021/04/01 03:14:46;;;;;;;17.95;9.15;;;15.10;54.20;;;;;;5011644;28;20037;-71
2021/04/01 03:17:11;;;;;;;19.42;10.43;;;15.10;54.00;;;;;;5032121;28;20044;-72
2021/04/01 03:19:37;;;;;;;16.17;9.00;;;15.10;53.90;;;;;;5023080;28;20093;-71
2021/04/01 03:22:03;;;;;;;17.55;10.15;;;15.10;53.70;;;;;;5004536;28;20429;-72
2021/04/01 03:24:28;;;;;;;15.52;9.80;;;15.10;53.70;;;;;;5011919;28;20037;-72
2021/04/01 03:26:54;;;;;;;16.55;9.95;;;15.10;53.70;;;;;;5010037;28;20026;-72
2021/04/01 03:29:19;;;;;;;16.23;10.05;;;15.10;53.60;;;;;;5011648;28;20402;-72
2021/04/01 03:31:45;;;;;;;18.58;10.02;;;15.10;53.60;;;;;;5026704;28;20027;-72
2021/04/01 03:34:10;;;;;;;17.60;10.70;;;15.10;53.60;;;;;;5003227;28;20029;-71
2021/04/01 03:36:36;;;;;;;18.10;10.32;;;15.00;53.40;;;;;;5011366;28;20025;-69
2021/04/01 03:39:02;;;;;;;15.30;9.30;;;15.00;53.40;;;;;;5011132;28;20018;-70
2021/04/01 03:41:28;;;;;;;17.77;9.45;;;15.00;53.40;;;;;;5025045;28;20394;-70
2021/04/01 03:43:54;;;;;;;16.92;10.00;;;15.10;53.50;;;;;;5024597;28;20051;-70
2021/04/01 03:46:19;;;;;;;13.48;9.20;;;15.10;53.60;;;;;;5023665;28;20386;-69
2021/04/01 03:48:45;;;;;;;16.73;9.45;;;15.10;53.40;;;;;;5017679;28;20038;-70
2021/04/01 03:51:11;;;;;;;19.88;10.40;;;15.10;53.40;;;;;;5021764;28;20100;-70
2021/04/01 03:53:36;;;;;;;20.23;10.23;;;15.10;53.30;;;;;;5017013;28;20028;-69
2021/04/01 03:56:02;;;;;;;17.08;9.90;;;15.10;53.30;;;;;;5020493;28;20045;-70
2021/04/01 03:58:48;;;;;;;17.35;9.75;;;15.10;53.40;;;;;;5020773;28;20386;-70
2021/04/01 04:01:37;;;;;;;16.40;9.73;;;15.10;53.50;;;;;;5022896;28;20057;-69
2021/04/01 04:04:16;;;;;;;16.05;9.75;;;15.10;53.50;;;;;;4990379;28;20562;-70
2021/04/01 04:07:04;;;;;;;16.45;10.20;;;15.10;53.50;;;;;;5023662;28;20049;-70
2021/04/01 04:09:42;;;;;;;19.63;10.43;;;15.10;53.30;;;;;;5012079;28;20042;-69
2021/04/01 04:12:31;;;;;;;17.05;10.02;;;15.10;53.40;;;;;;5028682;28;20030;-70
2021/04/01 04:15:07;;;;;;;18.83;11.18;;;15.10;53.50;;;;;;5016029;28;20121;-69
2021/04/01 04:17:33;;;;;;;17.63;10.80;;;15.10;53.60;;;;;;5018188;28;20026;-69
2021/04/01 04:19:59;;;;;;;19.83;10.98;;;15.10;53.70;;;;;;5013283;28;20034;-70
2021/04/01 04:22:25;;;;;;;18.00;10.85;;;15.10;53.70;;;;;;5014604;28;20383;-69
2021/04/01 04:24:51;;;;;;;19.55;10.52;;;15.10;53.70;;;;;;5014412;28;20033;-69
2021/04/01 04:30:00;;;;;;;21.52;11.38;;;15.10;54.20;;;;;;5014063;28;20040;-69
2021/04/01 04:32:30;;;;;;;20.35;11.07;;;15.10;53.70;;;;;;5015590;28;20101;-70
2021/04/01 04:34:56;;;;;;;18.83;10.27;;;15.10;53.70;;;;;;4995804;28;20582;-69
2021/04/01 04:37:22;;;;;;;20.02;10.80;;;15.10;53.70;;;;;;5015144;28;20068;-70
2021/04/01 04:39:48;;;;;;;24.20;11.48;;;15.10;53.80;;;;;;5028366;28;20449;-69
2021/04/01 04:42:14;;;;;;;16.45;9.68;;;15.10;53.90;;;;;;5015096;28;20030;-69
2021/04/01 04:44:39;;;;;;;18.38;10.43;;;15.10;54.00;;;;;;5013851;28;20025;-69
2021/04/01 04:47:05;;;;;;;18.45;10.95;;;15.10;54.00;;;;;;5033907;28;20386;-69
2021/04/01 04:49:31;;;;;;;18.45;10.75;;;15.10;54.60;;;;;;5030031;28;20588;-69
2021/04/01 04:51:57;;;;;;;18.23;11.38;;;15.10;54.20;;;;;;5030090;28;20138;-71
2021/04/01 04:54:22;;;;;;;19.08;10.57;;;15.20;54.30;;;;;;5031803;28;20042;-72
2021/04/01 04:56:50;;;;;;;17.73;10.05;;;15.10;54.20;;;;;;5030117;28;20033;-72
2021/04/01 04:59:30;;;;;;;19.85;10.88;;;15.20;54.30;;;;;;5006984;28;20050;-74
2021/04/01 05:04:59;;;;;;;19.52;9.80;;;15.20;54.30;;;;;;4981081;28;20057;-73
2021/04/01 05:07:25;;;;;;;21.30;11.50;;;15.20;54.20;;;;;;5025968;28;20061;-73
2021/04/01 05:09:51;;;;;;;20.70;11.40;;;15.20;54.20;;;;;;5014309;28;20034;-75
2021/04/01 05:12:16;;;;;;;16.67;11.10;;;15.20;54.20;;;;;;5027374;28;20049;-74
2021/04/01 05:14:42;;;;;;;17.45;10.15;;;15.20;54.20;;;;;;5012226;28;20121;-73
2021/04/01 05:17:08;;;;;;;21.85;11.68;;;15.20;54.30;;;;;;5028826;28;20029;-75
2021/04/01 05:19:35;;;;;;;21.98;12.10;;;15.20;54.30;;;;;;5026050;28;20048;-75
2021/04/01 05:22:15;;;;;;;17.23;11.00;;;15.20;54.30;;;;;;4995264;28;20072;-75
2021/04/01 05:24:41;;;;;;;19.83;10.75;;;15.20;54.30;;;;;;5013013;28;20037;-74
2021/04/01 05:29:58;;;;;;;16.55;10.48;;;15.20;54.50;;;;;;5013716;28;20061;-74
2021/04/01 05:32:25;;;;;;;23.45;11.63;;;15.20;54.50;;;;;;5003948;28;20038;-75
2021/04/01 05:34:51;;;;;;;22.15;11.98;;;15.20;54.60;;;;;;5027550;28;20034;-78
2021/04/01 05:37:16;;;;;;;23.85;11.27;;;15.20;54.80;;;;;;5021964;28;20322;-78
2021/04/01 05:39:42;;;;;;;22.45;10.90;;;15.20;54.70;;;;;;5013223;28;20037;-76
2021/04/01 05:42:08;;;;;;;17.83;11.45;;;15.20;54.70;;;;;;5032864;28;20053;-75
2021/04/01 05:44:40;;;;;;;22.08;11.38;;;15.20;54.70;;;;;;5036049;28;20105;-75
2021/04/01 05:49:52;;;;;;;18.27;11.30;;;15.30;54.90;;;;;;5000624;28;20078;-74
2021/04/01 05:52:36;;;;;;;23.38;12.18;;;15.30;55.10;;;;;;5022842;28;20034;-75
2021/04/01 06:06:05;;;;;;;25.98;12.07;;;15.40;55.50;;;;;;5022199;28;20032;-74
2021/04/01 06:08:39;;;;;;;23.05;11.40;;;15.50;55.00;;;;;;5031409;28;20445;-74
2021/04/01 06:11:04;;;;;;;20.25;11.60;;;15.50;55.30;;;;;;5000302;28;20037;-75
2021/04/01 06:13:35;;;;;;;19.50;11.07;;;15.60;55.00;;;;;;4994952;28;20034;-73
2021/04/01 06:16:04;;;;;;;23.48;11.63;;;15.70;55.30;;;;;;5021132;28;20029;-73
2021/04/01 06:18:33;;;;;;;29.45;11.63;;;15.70;54.90;;;;;;5016851;28;20132;-75
2021/04/01 06:21:11;;;;;;;20.45;12.45;;;15.80;54.70;;;;;;5014585;28;20048;-73
2021/04/01 06:23:41;;;;;;;18.80;10.77;;;15.80;54.50;;;;;;5023828;28;20387;-74
2021/04/01 06:26:14;;;;;;;21.52;11.32;;;15.80;54.30;;;;;;5022470;28;20148;-80
2021/04/01 06:28:49;;;;;;;19.30;10.38;;;15.80;54.20;;;;;;5023979;28;20399;-80
2021/04/01 06:31:22;;;;;;;19.27;12.05;;;15.80;54.20;;;;;;5024390;28;20030;-79
2021/04/01 06:33:50;;;;;;;24.25;11.85;;;15.80;54.10;;;;;;5023155;28;20378;-79
2021/04/01 06:36:18;;;;;;;19.17;11.05;;;15.80;54.30;;;;;;5024195;28;20470;-79
2021/04/01 06:38:44;;;;;;;24.73;12.15;;;15.80;54.70;;;;;;5016410;28;20056;-79
2021/04/01 06:41:22;;;;;;;22.75;11.13;;;15.90;54.50;;;;;;5023718;28;20025;-79
2021/04/01 06:44:16;;;;;;;20.23;11.45;;;16.00;54.20;;;;;;5020202;28;20494;-79
2021/04/01 06:46:47;;;;;;;22.42;11.15;;;16.10;54.30;;;;;;4993554;28;20037;-79
2021/04/01 06:52:10;;;;;;;21.00;11.90;;;16.20;54.10;;;;;;5021394;28;20037;-80
2021/04/01 06:54:43;;;;;;;25.30;11.95;;;16.20;54.10;;;;;;5011397;28;20478;-78
2021/04/01 07:02:41;;;;;;;21.65;12.30;;;16.50;53.80;;;;;;5009650;28;20088;-70
2021/04/01 07:05:56;;;;;;;21.48;11.98;;;16.50;53.90;;;;;;5008918;28;20523;-70
2021/04/01 07:08:06;;;;;;;20.25;11.52;;;16.60;54.00;;;;;;5017763;28;20045;-71
2021/04/01 07:10:58;;;;;;;24.98;12.43;;;16.70;53.80;;;;;;5018808;28;20037;-70
2021/04/01 07:13:32;;;;;;;24.17;13.25;;;16.70;53.30;;;;;;5011951;28;20052;-70
2021/04/01 07:16:35;;;;;;;23.58;13.40;;;16.70;53.60;;;;;;5012398;28;20033;-71
2021/04/01 07:47:20;;;;;;;22.98;13.40;;;17.00;53.10;;;;;;5012308;28;20069;-69
2021/04/01 07:49:48;;;;;;;29.40;14.60;;;17.10;53.10;;;;;;5010302;28;20061;-69
2021/04/01 07:52:21;;;;;;;31.10;14.27;;;17.20;53.10;;;;;;5011541;28;20040;-69
2021/04/01 07:54:56;;;;;;;29.50;14.85;;;17.30;53.00;;;;;;4993408;28;20040;-69
2021/04/01 08:00:20;;;;;;;27.27;14.13;;;17.50;52.60;;;;;;5011991;28;20057;-69
2021/04/01 08:03:01;;;;;;;30.20;14.88;;;17.50;52.30;;;;;;5013957;28;20069;-68
2021/04/01 08:05:35;;;;;;;29.45;15.68;;;17.60;52.30;;;;;;4999469;28;20024;-69
2021/04/01 08:08:09;;;;;;;29.20;14.80;;;17.80;52.30;;;;;;5018398;28;20045;-69
2021/04/01 08:10:40;;;;;;;28.45;15.32;;;17.90;52.30;;;;;;5016998;28;20097;-70
2021/04/01 08:13:10;;;;;;;27.92;16.05;;;18.00;52.10;;;;;;5024811;28;20026;-70
2021/04/01 08:15:46;;;;;;;32.45;14.95;;;18.10;51.70;;;;;;5017079;28;20028;-69
2021/04/01 08:18:18;;;;;;;25.88;14.88;;;18.20;51.50;;;;;;5024314;28;20066;-69
2021/04/01 08:20:47;;;;;;;29.88;15.68;;;18.30;51.30;;;;;;5018481;28;20084;-67
2021/04/01 08:23:20;;;;;;;29.60;16.05;;;18.40;51.10;;;;;;5024715;28;20032;-68
2021/04/01 08:31:39;;;;;;;27.17;15.25;;;18.70;50.40;;;;;;5016574;28;20033;-67
2021/04/01 08:34:20;;;;;;;29.65;14.90;;;18.90;50.30;;;;;;5009742;28;20037;-70
2021/04/01 08:36:51;;;;;;;31.80;16.35;;;18.90;50.50;;;;;;5014215;28;20037;-68
2021/04/01 08:39:19;;;;;;;29.05;15.48;;;18.90;50.10;;;;;;5009754;28;20049;-69
2021/04/01 08:42:04;;;;;;;31.90;17.20;;;18.90;50.10;;;;;;5010810;28;20080;-68
2021/04/01 08:48:26;;;;;;;29.75;17.13;;;19.00;48.30;;;;;;4998402;28;20391;-68
2021/04/01 08:51:30;;;;;;;33.47;18.97;;;18.90;48.70;;;;;;4993464;28;20018;-67
2021/04/01 08:54:08;;;;;;;29.30;17.05;;;18.90;48.50;;;;;;5003891;28;20022;-68
2021/04/01 08:56:40;;;;;;;31.70;17.80;;;18.90;48.40;;;;;;5013030;28;20030;-68
2021/04/01 08:59:32;;;;;;;29.40;17.58;;;18.90;48.30;;;;;;5014610;28;20053;-68
2021/04/01 09:01:59;;;;;;;28.33;17.02;;;19.00;48.10;;;;;;5013814;28;20025;-69
2021/04/01 09:04:32;;;;;;;36.63;18.85;;;19.00;47.70;;;;;;4995546;28;20053;-68
2021/04/01 09:07:05;;;;;;;29.20;17.35;;;18.90;47.40;;;;;;5014423;28;20030;-68
2021/04/01 09:09:33;;;;;;;29.70;17.90;;;18.90;46.80;;;;;;5014618;28;20034;-69
2021/04/01 09:12:12;;;;;;;30.67;18.75;;;18.90;46.80;;;;;;5013293;28;20072;-68
2021/04/01 09:14:41;;;;;;;33.90;18.30;;;18.90;46.20;;;;;;5013171;28;20379;-68
2021/04/01 09:17:13;;;;;;;34.55;18.83;;;18.80;46.50;;;;;;5013344;28;20052;-68
2021/04/01 09:19:41;;;;;;;29.25;17.08;;;18.80;46.50;;;;;;5013454;28;20037;-67
2021/04/01 09:22:23;;;;;;;30.65;18.45;;;18.80;46.50;;;;;;4994900;28;20041;-68
2021/04/01 09:25:07;;;;;;;33.72;20.00;;;18.80;46.10;;;;;;5013050;28;20109;-69
2021/04/01 09:27:44;;;;;;;34.33;18.17;;;18.80;46.90;;;;;;5013206;28;20026;-67
2021/04/01 09:30:10;;;;;;;36.75;20.40;;;18.80;47.40;;;;;;5013155;28;20037;-68
2021/04/01 09:32:38;;;;;;;31.02;17.98;;;18.90;47.20;;;;;;4995576;28;20157;-68
2021/04/01 09:35:05;;;;;;;32.78;18.33;;;18.90;47.50;;;;;;5013379;28;20026;-68
2021/04/01 09:37:32;;;;;;;34.85;19.52;;;19.00;47.90;;;;;;5018457;28;20508;-67
2021/04/01 09:40:11;;;;;;;33.30;18.27;;;19.10;47.80;;;;;;5024007;28;20076;-67
2021/04/01 09:42:42;;;;;;;31.58;17.85;;;19.10;47.80;;;;;;5013454;28;20036;-68
2021/04/01 09:45:10;;;;;;;30.98;18.65;;;19.20;47.80;;;;;;5012919;28;20025;-68
2021/04/01 09:47:49;;;;;;;32.58;18.08;;;19.30;47.70;;;;;;5012191;28;20406;-67
2021/04/01 09:50:15;;;;;;;30.50;19.23;;;19.40;47.90;;;;;;5012595;28;20386;-68
2021/04/01 09:52:52;;;;;;;33.42;18.60;;;19.50;47.80;;;;;;5013218;28;20038;-68
2021/04/01 09:55:18;;;;;;;31.50;19.70;;;19.60;47.80;;;;;;5012117;28;20034;-67
2021/04/01 09:57:46;;;;;;;31.27;18.33;;;19.80;47.80;;;;;;5013056;28;20040;-68
2021/04/01 10:00:29;;;;;;;32.55;19.38;;;19.80;47.30;;;;;;5012588;28;20049;-67
2021/04/01 10:03:21;;;;;;;34.58;19.20;;;19.90;47.20;;;;;;5013114;28;20061;-67
2021/04/01 10:05:48;;;;;;;31.45;19.35;;;19.90;47.40;;;;;;5012823;28;20022;-67
2021/04/01 10:08:26;;;;;;;30.27;18.77;;;20.00;47.30;;;;;;5011499;28;20042;-67
2021/04/01 10:10:55;;;;;;;33.63;19.75;;;20.10;47.20;;;;;;4988803;28;20502;-68
2021/04/01 10:13:30;;;;;;;30.23;18.73;;;20.20;47.10;;;;;;5012169;28;20029;-68
2021/04/01 10:15:56;;;;;;;;;;;20.20;47.20;;;;;;5012938;28;20152;-67
2021/04/01 10:18:31;;;;;;;35.42;20.05;;;20.20;46.90;;;;;;5024429;28;19960;-67
2021/04/01 10:21:00;;;;;;;32.90;19.83;;;20.10;47.10;;;;;;4998742;28;20029;-68
2021/04/01 10:23:26;;;;;;;33.78;19.95;;;20.10;46.70;;;;;;5013136;28;20093;-67
2021/04/01 10:25:59;;;;;;;29.58;18.60;;;20.10;47.20;;;;;;5012323;28;20045;-67
2021/04/01 10:28:40;;;;;;;33.35;19.77;;;20.00;47.20;;;;;;5011626;28;20037;-68
2021/04/01 10:31:14;;;;;;;31.88;19.55;;;20.00;47.00;;;;;;5022990;28;20110;-69
2021/04/01 10:34:08;;;;;;;32.88;19.25;;;20.00;47.20;;;;;;5015077;28;20073;-67
2021/04/01 10:36:39;;;;;;;34.35;17.77;;;20.10;47.10;;;;;;5026595;28;20037;-66
2021/04/01 10:39:10;;;;;;;36.13;19.85;;;20.10;47.30;;;;;;5020734;28;20121;-66
2021/04/01 10:41:48;;;;;;;36.35;20.63;;;20.20;47.30;;;;;;5025624;28;20037;-66
2021/04/01 10:44:15;;;;;;;38.95;20.98;;;20.10;47.20;;;;;;5012287;28;20030;-66
2021/04/01 10:46:49;;;;;;;34.63;20.27;;;20.00;47.20;;;;;;4992002;28;20033;-69
2021/04/01 10:49:18;;;;;;;34.20;21.27;;;20.00;47.50;;;;;;4995019;28;20048;-67
2021/04/01 10:51:49;;;;;;;34.20;20.17;;;19.90;47.40;;;;;;4993955;28;20022;-67
2021/04/01 10:54:15;;;;;;;34.63;20.73;;;19.90;47.70;;;;;;5018704;28;20045;-67
2021/04/01 10:56:53;;;;;;;34.58;20.02;;;19.80;47.80;;;;;;5021648;28;20065;-67
2021/04/01 10:59:34;;;;;;;38.85;20.58;;;19.80;47.90;;;;;;5012007;28;20083;-67
2021/04/01 11:02:03;;;;;;;35.10;21.13;;;19.80;48.10;;;;;;5025005;28;20108;-67
2021/04/01 11:04:30;;;;;;;38.47;21.30;;;19.80;47.30;;;;;;5015829;28;20045;-67
2021/04/01 11:07:01;;;;;;;37.92;21.40;;;19.70;47.40;;;;;;5020048;28;20066;-68
2021/04/01 11:09:29;;;;;;;35.92;21.13;;;19.70;47.60;;;;;;5004790;28;20038;-68
2021/04/01 11:12:14;;;;;;;38.80;22.17;;;19.70;47.10;;;;;;5009041;28;20457;-67
2021/04/01 11:15:04;;;;;;;38.55;22.25;;;19.60;47.20;;;;;;5010952;28;20029;-66
2021/04/01 11:17:34;;;;;;;36.35;20.67;;;19.60;47.10;;;;;;4991307;28;20096;-68
2021/04/01 11:20:03;;;;;;;36.45;21.90;;;19.60;47.50;;;;;;5007905;28;20069;-67
2021/04/01 11:22:29;;;;;;;35.83;20.88;;;19.60;47.00;;;;;;5007737;28;20601;-66
2021/04/01 11:24:54;;;;;;;36.58;20.83;;;19.60;47.60;;;;;;5008817;28;20042;-67
2021/04/01 11:27:21;;;;;;;32.78;19.20;;;19.60;47.40;;;;;;4999651;28;20033;-67
2021/04/01 11:29:55;;;;;;;40.42;20.95;;;19.60;47.70;;;;;;5000495;28;20038;-67
2021/04/01 11:32:23;;;;;;;35.33;19.58;;;19.70;47.00;;;;;;5002920;28;20036;-68
2021/04/01 11:34:51;;;;;;;34.00;19.75;;;19.80;46.90;;;;;;5000720;28;20122;-67
2021/04/01 11:37:21;;;;;;;33.75;19.75;;;19.80;46.40;;;;;;4999625;28;20038;-69
2021/04/01 11:39:48;;;;;;;36.63;20.13;;;19.80;46.60;;;;;;5005086;28;20030;-67
2021/04/01 11:42:16;;;;;;;32.63;17.95;;;19.80;46.50;;;;;;5031515;28;20071;-69
2021/04/01 11:44:43;;;;;;;31.88;16.73;;;19.80;47.00;;;;;;5004201;28;20080;-68
2021/04/01 11:47:30;;;;;;;29.38;17.80;;;19.80;47.50;;;;;;5031039;28;20037;-68
2021/04/01 11:49:57;;;;;;;33.70;19.25;;;19.90;47.70;;;;;;5016727;28;20060;-68
2021/04/01 11:52:23;;;;;;;35.17;21.40;;;20.00;47.20;;;;;;5023512;28;20025;-68
2021/04/01 11:54:52;;;;;;;37.20;20.50;;;20.10;47.40;;;;;;5010518;28;20121;-68
2021/04/01 11:57:31;;;;;;;36.35;20.50;;;20.10;47.90;;;;;;5031305;28;20040;-68
2021/04/01 12:00:01;;;;;;;41.20;22.10;;;20.10;47.50;;;;;;5019759;28;20469;-68
2021/04/01 12:02:29;;;;;;;33.83;19.95;;;20.20;47.70;;;;;;5002025;28;20502;-68
2021/04/01 12:04:58;;;;;;;35.20;20.45;;;20.20;47.30;;;;;;4993735;28;20055;-68
2021/04/01 12:07:25;;;;;;;34.55;20.05;;;20.20;47.00;;;;;;5024227;28;20025;-68
2021/04/01 12:09:52;;;;;;;35.15;19.08;;;20.30;46.90;;;;;;5008997;28;20128;-68
2021/04/01 12:12:31;;;;;;;38.22;20.27;;;20.30;47.10;;;;;;5011101;28;20041;-68
2021/04/01 12:14:57;;;;;;;34.20;19.02;;;20.40;46.50;;;;;;4991758;28;20443;-67
2021/04/01 12:17:34;;;;;;;31.67;18.52;;;20.40;46.40;;;;;;4993936;28;20022;-67
2021/04/01 12:20:02;;;;;;;32.67;18.92;;;20.40;45.80;;;;;;5011646;28;20491;-67
2021/04/01 12:22:46;;;;;;;34.28;19.42;;;20.40;45.70;;;;;;5012236;28;20183;-67
2021/04/01 12:25:20;;;;;;;32.00;18.15;;;20.40;45.50;;;;;;5011256;28;20366;-68
2021/04/01 12:27:56;;;;;;;34.50;19.20;;;20.50;45.30;;;;;;5011138;28;20062;-68
2021/04/01 12:30:27;;;;;;;32.60;18.10;;;20.50;45.20;;;;;;5004198;28;20425;-68
2021/04/01 12:32:53;;;;;;;34.47;18.75;;;20.40;44.80;;;;;;5003178;28;20510;-68
2021/04/01 12:35:20;;;;;;;35.55;19.45;;;20.40;44.60;;;;;;5017986;28;20037;-68
2021/04/01 12:38:05;;;;;;;34.33;18.95;;;20.30;44.90;;;;;;5013987;28;20398;-68
2021/04/01 12:40:38;;;;;;;36.53;19.73;;;20.20;44.90;;;;;;5019113;28;20419;-69
2021/04/01 12:43:09;;;;;;;40.00;22.05;;;20.20;44.30;;;;;;5013473;28;20395;-69
2021/04/01 12:45:37;;;;;;;33.00;19.13;;;20.20;43.90;;;;;;5019415;28;20565;-67
2021/04/01 12:48:10;;;;;;;39.25;20.70;;;20.20;43.60;;;;;;5014835;28;20044;-67
2021/04/01 12:50:39;;;;;;;40.22;20.27;;;20.30;43.70;;;;;;5019847;28;20478;-68
2021/04/01 12:53:05;;;;;;;30.92;18.63;;;20.30;43.70;;;;;;5020572;28;20108;-68
2021/04/01 12:55:48;;;;;;;34.17;18.98;;;20.30;44.20;;;;;;5019120;28;20049;-67
2021/04/01 12:58:34;;;;;;;35.05;19.75;;;20.30;44.00;;;;;;5034602;28;20022;-68
2021/04/01 13:03:48;;;;;;;35.10;20.58;;;20.40;44.80;;;;;;5014303;28;20030;-68
2021/04/01 13:06:21;;;;;;;36.10;21.83;;;20.40;45.40;;;;;;5024474;28;20060;-68
2021/04/01 13:08:52;;;;;;;35.60;19.77;;;20.30;45.80;;;;;;5034270;28;20046;-68
2021/04/01 13:11:19;;;;;;;33.45;20.38;;;20.40;46.00;;;;;;5020602;28;20030;-68
2021/04/01 13:13:45;;;;;;;39.92;21.98;;;20.30;46.40;;;;;;5014815;28;20474;-67
2021/04/01 13:16:11;;;;;;;37.92;23.55;;;20.30;47.20;;;;;;5023393;28;20044;-67
2021/04/01 13:18:37;;;;;;;32.92;20.70;;;20.40;48.10;;;;;;5032828;28;20025;-67
2021/04/01 13:21:04;;;;;;;34.40;21.73;;;20.50;48.10;;;;;;5009802;28;20026;-66
2021/04/01 13:23:44;;;;;;;33.35;20.48;;;20.50;48.20;;;;;;5014028;28;20497;-67
2021/04/01 13:26:14;;;;;;;37.45;21.40;;;20.50;48.10;;;;;;5008804;28;20041;-67
2021/04/01 13:28:43;;;;;;;37.17;21.70;;;20.50;47.70;;;;;;5013821;28;20506;-68
2021/04/01 13:31:20;;;;;;;40.97;22.20;;;20.40;47.60;;;;;;5007806;28;20466;-67
2021/04/01 13:34:09;;;;;;;41.47;22.45;;;20.30;47.80;;;;;;5013914;28;20018;-66
2021/04/01 13:36:40;;;;;;;36.80;22.10;;;20.20;47.80;;;;;;5014563;28;20095;-65
2021/04/01 13:39:07;;;;;;;41.13;23.88;;;20.10;47.50;;;;;;5012738;28;20141;-66
2021/04/01 13:41:54;;;;;;;45.92;24.10;;;20.10;47.00;;;;;;5013482;28;20105;-66
2021/04/01 13:44:22;;;;;;;44.97;23.95;;;20.00;46.20;;;;;;5013425;28;20030;-65
2021/04/01 13:46:49;;;;;;;45.65;24.35;;;19.90;46.00;;;;;;5015049;28;20540;-66
2021/04/01 13:49:20;;;;;;;47.70;24.80;;;19.80;45.40;;;;;;5012835;28;20038;-66
2021/04/01 13:51:48;;;;;;;44.45;24.25;;;19.80;45.60;;;;;;5014708;28;20228;-66
2021/04/01 13:54:29;;;;;;;47.78;24.33;;;19.90;46.40;;;;;;4999421;28;20022;-66
2021/04/01 13:57:09;;;;;;;40.13;23.40;;;19.90;47.40;;;;;;4984282;28;20084;-66
2021/04/01 13:59:42;;;;;;;37.17;22.52;;;19.80;48.20;;;;;;5005974;28;20041;-66